Time;durP1;ratioP1;P1;durP2;ratioP2;P2;SDS_P1;SDS_P2;PMS_P1;PMS_P2;Temp;Humidity;BMP_temperature;BMP_pressure;BME280_temperature;BME280_humidity;BME280_pressure;Samples;Min_cycle;Max_cycle;Signal;HPM_P1;HPM_P2
2022/01/12 00:01:05;;;;;;;4.60;4.20;;;15.60;56.50;16.40;102762.00;;;;5046428;28;20546;-39
2022/01/12 00:03:34;;;;;;;4.53;4.13;;;15.60;56.60;16.40;102755.00;;;;5045657;28;20623;-39
2022/01/12 00:06:01;;;;;;;4.33;3.93;;;15.60;56.70;16.40;102757.00;;;;5045106;28;20216;-39
2022/01/12 00:08:27;;;;;;;4.17;3.87;;;15.60;56.70;16.30;102752.00;;;;5044959;28;20679;-39
2022/01/12 00:10:53;;;;;;;4.53;4.13;;;15.60;56.70;16.30;102747.00;;;;5045128;28;20178;-39
2022/01/12 00:13:18;;;;;;;4.40;4.00;;;15.50;56.90;16.30;102752.00;;;;5044066;28;20174;-39
2022/01/12 00:15:44;;;;;;;4.50;4.10;;;15.50;56.70;16.30;102747.00;;;;5045125;28;20151;-39
2022/01/12 00:18:10;;;;;;;4.60;4.10;;;15.50;56.70;16.30;102751.00;;;;5044561;28;20263;-38
2022/01/12 00:20:35;;;;;;;4.53;4.13;;;15.50;56.90;16.20;102740.00;;;;5045031;28;20178;-38
2022/01/12 00:23:01;;;;;;;4.53;4.13;;;15.40;56.90;16.20;102739.00;;;;5044695;28;20224;-38
2022/01/12 00:25:33;;;;;;;4.20;3.80;;;15.40;56.80;16.20;102732.00;;;;5047817;28;20174;-39
2022/01/12 00:33:28;;;;;;;4.87;4.47;;;15.30;56.70;16.10;102724.00;;;;5048402;28;20200;-39
2022/01/12 00:35:55;;;;;;;4.27;3.87;;;15.30;56.80;16.10;102729.00;;;;5048891;28;20651;-39
2022/01/12 00:38:23;;;;;;;4.50;4.10;;;15.30;56.80;16.10;102747.00;;;;5048778;28;20286;-38
2022/01/12 00:40:51;;;;;;;4.33;4.00;;;15.30;57.10;16.00;102752.00;;;;5068017;28;20169;-39
2022/01/12 00:43:18;;;;;;;4.33;3.93;;;15.20;56.70;16.00;102757.00;;;;5053101;28;20220;-39
2022/01/12 00:45:45;;;;;;;4.00;3.70;;;15.20;57.10;16.00;102763.00;;;;5049423;28;20547;-38
2022/01/12 00:48:12;;;;;;;3.80;3.50;;;15.20;57.00;16.00;102758.00;;;;5050069;28;20186;-38
2022/01/12 00:50:38;;;;;;;3.77;3.47;;;15.20;56.90;16.00;102750.00;;;;5050159;28;20585;-39
2022/01/12 00:53:04;;;;;;;4.10;3.70;;;15.20;57.20;16.00;102742.00;;;;5049680;28;20193;-38
2022/01/12 00:55:31;;;;;;;4.03;3.63;;;15.10;57.20;15.90;102741.00;;;;5048342;28;20189;-39
2022/01/12 00:57:58;;;;;;;4.20;3.80;;;15.20;57.00;16.00;102734.00;;;;5048336;28;20489;-39
2022/01/12 01:00:24;;;;;;;4.17;3.83;;;15.20;56.90;16.00;102743.00;;;;5048483;28;20205;-38
2022/01/12 01:02:50;;;;;;;3.90;3.60;;;15.20;56.40;16.00;102755.00;;;;5047504;28;20166;-39
2022/01/12 01:05:20;;;;;;;4.23;3.90;;;15.20;56.50;16.00;102769.00;;;;5048123;28;20520;-39
2022/01/12 04:56:30;;;;;;;2.77;2.57;;;13.30;57.80;14.50;102835.00;;;;5062423;27;1196620;-39
2022/01/12 04:58:56;;;;;;;3.00;2.80;;;13.40;57.70;14.40;102849.00;;;;5048792;28;20179;-39
2022/01/12 05:01:24;;;;;;;3.70;2.80;;;13.40;57.40;14.30;102829.00;;;;5045516;28;20223;-39
2022/01/12 05:06:46;;;;;;;2.90;2.70;;;13.50;57.20;14.30;102828.00;;;;5045563;28;20216;-39
2022/01/12 05:14:24;;;;;;;3.87;2.50;;;13.60;56.80;14.30;102851.00;;;;5043806;28;20232;-39
2022/01/12 05:16:50;;;;;;;4.73;2.50;;;13.60;57.00;14.40;102856.00;;;;5045489;28;20192;-39
2022/01/12 05:19:15;;;;;;;2.90;2.53;;;13.50;57.00;14.30;102865.00;;;;5054633;28;20179;-40
2022/01/12 05:21:41;;;;;;;4.63;2.73;;;13.50;57.20;14.30;102863.00;;;;5046362;28;20193;-39
2022/01/12 05:24:07;;;;;;;2.70;2.50;;;13.50;57.00;14.30;102859.00;;;;5047821;28;20869;-39
2022/01/12 05:26:36;;;;;;;2.80;2.60;;;13.50;56.90;14.30;102863.00;;;;5046146;28;20195;-40
2022/01/12 05:29:04;;;;;;;3.80;2.60;;;13.50;56.90;14.30;102866.00;;;;5045938;28;20182;-39
2022/01/12 05:31:29;;;;;;;3.27;2.80;;;13.50;56.90;14.30;102854.00;;;;5044784;28;20175;-40
2022/01/12 05:33:58;;;;;;;2.67;2.43;;;13.50;56.80;14.40;102861.00;;;;5046316;28;20216;-39
2022/01/12 05:36:25;;;;;;;3.67;2.90;;;13.50;56.80;14.40;102865.00;;;;5044492;28;20244;-39
2022/01/12 05:38:50;;;;;;;3.90;2.57;;;13.50;56.90;14.40;102864.00;;;;5045378;28;20679;-39
2022/01/12 05:41:16;;;;;;;3.37;2.50;;;13.50;56.70;14.40;102859.00;;;;5044976;28;20179;-40
2022/01/12 05:43:45;;;;;;;2.80;2.60;;;13.50;56.90;14.40;102850.00;;;;5044676;28;20566;-39
2022/01/12 05:46:13;;;;;;;2.60;2.40;;;13.50;56.70;14.40;102859.00;;;;5044311;28;20668;-40
2022/01/12 05:51:27;;;;;;;3.20;2.60;;;13.50;56.70;14.40;102851.00;;;;5050756;28;20232;-39
2022/01/12 05:53:53;;;;;;;2.80;2.60;;;13.50;56.60;14.40;102868.00;;;;5045269;28;20186;-39
2022/01/12 05:56:18;;;;;;;2.63;2.43;;;13.50;56.60;14.40;102856.00;;;;5040176;28;20819;-39
2022/01/12 05:58:44;;;;;;;3.47;2.73;;;13.50;56.70;14.40;102860.00;;;;5033778;28;20167;-39
2022/01/12 06:01:10;;;;;;;3.10;2.60;;;13.40;56.60;14.40;102851.00;;;;5032418;28;20175;-39
2022/01/12 06:03:36;;;;;;;4.20;2.73;;;13.40;56.70;14.40;102859.00;;;;5032109;28;20174;-41
2022/01/12 06:06:01;;;;;;;2.60;2.40;;;13.40;56.70;14.40;102864.00;;;;5031435;28;20210;-39
2022/01/12 06:08:27;;;;;;;2.90;2.60;;;13.40;56.70;14.40;102854.00;;;;5030027;28;20182;-39
2022/01/12 06:10:53;;;;;;;2.70;2.50;;;13.40;56.80;14.40;102859.00;;;;5030110;28;20170;-40
2022/01/12 06:13:18;;;;;;;3.23;2.83;;;13.40;56.80;14.40;102868.00;;;;5050717;28;20175;-39
2022/01/12 06:15:44;;;;;;;2.57;2.37;;;13.40;56.70;14.30;102868.00;;;;5050133;28;20905;-39
2022/01/12 06:18:10;;;;;;;2.70;2.50;;;13.40;56.70;14.30;102867.00;;;;5050620;28;20596;-39
2022/01/12 06:20:36;;;;;;;2.67;2.47;;;13.40;56.50;14.30;102878.00;;;;5050252;28;20700;-38
2022/01/12 06:23:01;;;;;;;2.80;2.60;;;13.40;56.50;14.30;102869.00;;;;5050434;28;20174;-39
2022/01/12 06:25:27;;;;;;;3.30;2.70;;;13.40;56.60;14.30;102860.00;;;;5050837;28;20260;-38
2022/01/12 06:28:09;;;;;;;2.70;2.50;;;13.40;56.70;14.30;102866.00;;;;5050793;28;20171;-38
2022/01/12 06:33:18;;;;;;;3.10;2.80;;;13.30;56.70;14.30;102863.00;;;;5050949;28;20161;-38
2022/01/12 06:35:44;;;;;;;2.67;2.47;;;13.30;56.90;14.30;102866.00;;;;5050722;28;20198;-37
2022/01/12 06:38:10;;;;;;;2.73;2.53;;;13.30;56.80;14.30;102843.00;;;;5050121;28;20796;-38
2022/01/12 06:40:36;;;;;;;2.73;2.53;;;13.30;56.80;14.30;102853.00;;;;5049295;28;20220;-38
2022/01/12 06:43:02;;;;;;;2.90;2.70;;;13.20;56.70;14.30;102838.00;;;;5049987;28;20170;-38
2022/01/12 06:45:28;;;;;;;2.60;2.40;;;13.20;56.80;14.30;102867.00;;;;5049492;28;20198;-38
2022/01/12 06:47:53;;;;;;;2.90;2.60;;;13.20;56.90;14.30;102869.00;;;;5050688;28;20577;-38
2022/01/12 06:50:19;;;;;;;2.70;2.50;;;13.20;56.80;14.20;102859.00;;;;5049877;28;20174;-38
2022/01/12 06:52:46;;;;;;;2.90;2.70;;;13.20;56.70;14.20;102867.00;;;;5050255;28;20223;-38
2022/01/12 06:55:12;;;;;;;3.27;2.57;;;13.20;56.60;14.20;102872.00;;;;5050234;28;20205;-38
2022/01/12 06:57:37;;;;;;;2.60;2.40;;;13.20;56.90;14.20;102876.00;;;;5049705;28;20222;-41
2022/01/12 07:00:04;;;;;;;2.83;2.50;;;13.20;57.40;14.20;102873.00;;;;5049672;28;20178;-38
2022/01/12 07:02:30;;;;;;;3.00;2.80;;;13.20;56.80;14.20;102876.00;;;;5049540;28;20628;-38
2022/01/12 07:04:56;;;;;;;2.83;2.63;;;13.10;56.80;14.20;102885.00;;;;5049562;28;20232;-38
2022/01/12 07:07:23;;;;;;;2.83;2.63;;;13.10;56.90;14.20;102880.00;;;;5047460;28;20628;-38
2022/01/12 07:09:49;;;;;;;2.83;2.63;;;13.10;56.80;14.20;102856.00;;;;5049590;28;20166;-38
2022/01/12 07:12:16;;;;;;;2.90;2.70;;;13.20;56.60;14.20;102891.00;;;;5047812;28;20181;-38
2022/01/12 07:14:42;;;;;;;2.73;2.53;;;13.20;56.80;14.20;102887.00;;;;5050082;28;20686;-38
2022/01/12 07:17:10;;;;;;;2.97;2.77;;;13.10;56.70;14.10;102908.00;;;;5049619;28;20198;-38
2022/01/12 07:19:36;;;;;;;2.80;2.60;;;13.10;56.70;14.10;102907.00;;;;5049455;28;20639;-38
2022/01/12 07:22:01;;;;;;;2.77;2.57;;;13.10;56.70;14.10;102908.00;;;;5048675;28;20261;-39
2022/01/12 07:24:27;;;;;;;2.83;2.60;;;13.10;57.10;14.10;102916.00;;;;5049108;28;20198;-38
2022/01/12 07:26:53;;;;;;;2.83;2.63;;;13.10;56.80;14.10;102917.00;;;;5049112;28;20213;-38
2022/01/12 07:29:18;;;;;;;3.50;2.60;;;13.10;56.70;14.10;102931.00;;;;5049379;28;20170;-39
2022/01/12 07:31:46;;;;;;;2.87;2.67;;;13.10;57.00;14.10;102939.00;;;;5050984;28;20162;-40
2022/01/12 07:34:14;;;;;;;2.60;2.40;;;13.10;56.80;14.10;102933.00;;;;5052806;28;20288;-38
2022/01/12 07:36:43;;;;;;;2.60;2.40;;;13.00;56.70;14.10;102938.00;;;;5051110;28;20194;-38
2022/01/12 07:39:09;;;;;;;2.90;2.70;;;13.00;56.70;14.10;102954.00;;;;5050660;28;20238;-39
2022/01/12 07:41:35;;;;;;;2.53;2.33;;;13.00;56.80;14.10;102956.00;;;;5048273;28;20712;-37
2022/01/12 07:44:00;;;;;;;2.90;2.70;;;13.00;56.80;14.10;102963.00;;;;5048751;28;20739;-40
2022/01/12 07:46:26;;;;;;;2.47;2.27;;;13.00;56.90;14.10;102977.00;;;;5048986;28;20221;-39
2022/01/12 07:48:52;;;;;;;2.80;2.60;;;12.90;57.10;14.00;102956.00;;;;5049395;28;20166;-38
2022/01/12 07:51:17;;;;;;;2.97;2.67;;;12.90;57.00;14.00;102972.00;;;;5048336;28;20177;-38
2022/01/12 07:53:43;;;;;;;2.67;2.47;;;12.90;57.00;14.00;102978.00;;;;5049788;28;20561;-39
2022/01/12 07:56:09;;;;;;;2.60;2.40;;;12.90;57.10;14.00;102976.00;;;;5050211;28;20208;-39
2022/01/12 07:58:35;;;;;;;2.80;2.60;;;13.00;57.20;14.00;102975.00;;;;5050179;28;20185;-38
2022/01/12 08:01:00;;;;;;;2.63;2.43;;;12.90;57.20;14.00;102986.00;;;;5048216;28;20178;-38
2022/01/12 08:03:26;;;;;;;2.67;2.47;;;12.90;57.20;14.00;102935.00;;;;5049376;28;20526;-38
2022/01/12 08:05:52;;;;;;;2.80;2.60;;;12.80;57.10;14.00;102997.00;;;;5050120;28;20209;-38
2022/01/12 08:08:18;;;;;;;2.80;2.60;;;12.80;57.30;14.00;102997.00;;;;5052024;28;20154;-38
2022/01/12 08:10:44;;;;;;;2.80;2.60;;;12.80;57.10;14.00;102994.00;;;;5050532;28;20189;-38
2022/01/12 08:13:10;;;;;;;2.70;2.50;;;12.80;57.30;14.00;102997.00;;;;5048564;28;20170;-38
2022/01/12 08:15:35;;;;;;;2.73;2.53;;;12.80;57.40;14.00;102996.00;;;;5048512;28;20249;-39
2022/01/12 08:18:01;;;;;;;2.60;2.40;;;12.80;57.30;14.00;103005.00;;;;5048723;28;20713;-38
2022/01/12 08:20:28;;;;;;;2.70;2.50;;;12.80;57.40;13.90;102999.00;;;;5046570;28;20167;-38
2022/01/12 08:22:54;;;;;;;2.70;2.50;;;12.80;57.30;13.90;102994.00;;;;5048174;28;20186;-38
2022/01/12 08:25:20;;;;;;;2.70;2.50;;;12.80;57.30;13.90;102986.00;;;;5048328;28;20202;-38
2022/01/12 08:27:46;;;;;;;2.70;2.50;;;12.80;57.30;13.90;103001.00;;;;5048836;28;20172;-38
2022/01/12 08:30:17;;;;;;;2.97;2.67;;;12.80;57.10;13.90;103013.00;;;;5047943;28;20689;-38
2022/01/12 08:32:51;;;;;;;4.47;2.87;;;12.80;57.20;13.90;103008.00;;;;5047605;28;20197;-38
2022/01/12 08:35:17;;;;;;;3.07;2.53;;;12.80;57.90;13.90;103011.00;;;;5046627;28;20206;-38
2022/01/12 08:37:43;;;;;;;3.30;2.40;;;12.80;57.80;13.90;103011.00;;;;5048262;28;20266;-38
2022/01/12 08:40:09;;;;;;;4.63;2.77;;;12.90;57.80;13.90;103019.00;;;;5048014;28;20253;-38
2022/01/12 08:42:35;;;;;;;4.87;2.70;;;13.00;57.70;13.90;103022.00;;;;5047890;28;20205;-38
2022/01/12 08:45:02;;;;;;;4.87;2.90;;;13.20;58.10;14.00;103010.00;;;;5047991;28;20660;-38
2022/01/12 08:47:28;;;;;;;3.37;2.80;;;13.50;57.50;14.10;103015.00;;;;5048626;28;20180;-39
2022/01/12 08:49:54;;;;;;;3.43;2.60;;;13.70;57.20;14.20;103019.00;;;;5047877;28;20654;-39
2022/01/12 08:52:22;;;;;;;3.20;2.73;;;14.00;57.00;14.40;103019.00;;;;5047993;28;20175;-39
2022/01/12 08:54:48;;;;;;;2.70;2.50;;;14.30;56.70;14.50;103018.00;;;;5048737;28;20162;-38
2022/01/12 08:57:13;;;;;;;4.37;2.53;;;14.50;56.40;14.80;103019.00;;;;5044439;28;20866;-39
2022/01/12 08:59:39;;;;;;;2.57;2.37;;;14.80;56.00;14.90;103018.00;;;;5047541;28;20174;-39
2022/01/12 09:02:06;;;;;;;3.00;2.60;;;15.10;55.80;15.20;103030.00;;;;5041444;28;20244;-38
2022/01/12 09:04:33;;;;;;;3.40;2.70;;;15.40;55.20;15.40;103038.00;;;;5027360;28;20211;-39
2022/01/12 09:06:59;;;;;;;2.80;2.60;;;15.60;55.10;15.50;103046.00;;;;5027759;28;20190;-39
2022/01/12 09:09:25;;;;;;;2.90;2.70;;;15.80;54.90;15.70;103040.00;;;;5027645;28;20167;-39
2022/01/12 09:11:51;;;;;;;3.13;2.83;;;15.90;54.80;15.80;103035.00;;;;5026806;28;20170;-39
2022/01/12 09:14:18;;;;;;;3.50;2.60;;;16.00;54.70;16.00;103037.00;;;;5027362;28;20182;-39
2022/01/12 09:16:44;;;;;;;2.90;2.60;;;16.10;54.80;16.10;103047.00;;;;5027584;28;20557;-39
2022/01/12 09:19:10;;;;;;;3.00;2.63;;;16.20;54.60;16.20;103050.00;;;;5027388;28;20194;-39
2022/01/12 09:21:35;;;;;;;2.80;2.60;;;16.20;54.60;16.30;103047.00;;;;5026384;28;20263;-39
2022/01/12 09:24:01;;;;;;;2.87;2.57;;;16.30;54.70;16.30;103053.00;;;;5028433;28;20261;-39
2022/01/12 09:26:27;;;;;;;3.50;2.77;;;16.40;54.70;16.40;103059.00;;;;5027434;28;20195;-39
2022/01/12 09:28:53;;;;;;;2.80;2.60;;;16.40;54.70;16.30;103050.00;;;;5026482;28;20168;-39
2022/01/12 09:31:18;;;;;;;9.17;2.80;;;16.50;54.90;16.60;103064.00;;;;5027767;28;20202;-39
2022/01/12 09:33:48;;;;;;;5.83;2.80;;;16.50;55.20;16.70;103057.00;;;;5029133;28;20178;-39
2022/01/12 09:36:14;;;;;;;7.33;3.10;;;16.60;55.50;16.70;103066.00;;;;5031131;28;20203;-39
2022/01/12 09:38:39;;;;;;;6.60;3.10;;;16.70;55.20;16.80;103072.00;;;;5031355;28;20233;-39
2022/01/12 09:41:05;;;;;;;8.63;3.30;;;16.70;54.90;16.90;103065.00;;;;5030354;28;20167;-39
2022/01/12 09:43:34;;;;;;;5.60;3.57;;;16.70;54.70;16.90;103068.00;;;;5031148;28;20186;-39
2022/01/12 09:45:59;;;;;;;8.30;4.10;;;16.80;54.50;17.00;103069.00;;;;5031184;28;20215;-40
2022/01/12 09:48:26;;;;;;;7.03;3.93;;;16.80;54.30;17.10;103079.00;;;;5032965;28;20588;-40
2022/01/12 09:50:52;;;;;;;6.03;3.80;;;16.80;54.10;17.10;103070.00;;;;5043281;28;20261;-39
2022/01/12 09:53:18;;;;;;;6.23;3.80;;;16.80;54.10;17.10;103077.00;;;;5050369;28;20159;-39
2022/01/12 09:55:44;;;;;;;7.77;4.00;;;16.80;54.10;17.10;103081.00;;;;5038732;28;20195;-39
2022/01/12 09:58:10;;;;;;;10.77;4.07;;;16.70;53.90;17.10;103074.00;;;;5030884;28;20661;-39
2022/01/12 10:00:35;;;;;;;4.60;3.70;;;16.70;53.70;17.10;103075.00;;;;5029937;28;20163;-40
2022/01/12 10:03:11;;;;;;;6.07;4.00;;;16.70;54.00;17.10;103082.00;;;;5032530;28;20591;-39
2022/01/12 10:05:37;;;;;;;8.70;4.40;;;16.70;54.10;17.10;103067.00;;;;5034197;28;20214;-40
2022/01/12 10:08:14;;;;;;;4.90;3.63;;;16.70;54.50;17.10;103077.00;;;;5033346;28;20312;-40
2022/01/12 10:10:59;;;;;;;8.13;3.70;;;16.60;54.40;17.10;103076.00;;;;5030469;28;20170;-39
2022/01/12 10:13:25;;;;;;;9.73;3.83;;;16.60;54.60;17.10;103070.00;;;;5030536;28;20186;-39
2022/01/12 10:15:52;;;;;;;5.90;3.17;;;16.60;54.60;17.10;103064.00;;;;5048342;28;20293;-39
2022/01/12 10:18:18;;;;;;;8.13;3.40;;;16.60;54.60;17.10;103060.00;;;;5050283;28;20166;-39
2022/01/12 10:20:47;;;;;;;9.77;4.13;;;16.60;55.00;17.10;103065.00;;;;5049362;28;20167;-39
2022/01/12 10:23:15;;;;;;;11.83;4.07;;;16.60;55.30;17.10;103054.00;;;;5050010;28;20178;-40
2022/01/12 10:25:46;;;;;;;5.10;3.20;;;16.70;55.50;17.10;103046.00;;;;5050167;28;20233;-39
2022/01/12 10:28:20;;;;;;;9.20;3.60;;;16.70;55.40;17.20;103047.00;;;;5049356;28;20757;-39
2022/01/12 10:30:58;;;;;;;8.60;3.80;;;16.80;55.50;17.20;103047.00;;;;5047855;28;20155;-39
2022/01/12 10:33:26;;;;;;;6.23;3.50;;;16.80;55.20;17.30;103052.00;;;;5049882;28;20731;-39
2022/01/12 10:35:58;;;;;;;6.23;3.70;;;16.90;55.20;17.30;103058.00;;;;5050109;28;20208;-39
2022/01/12 10:38:24;;;;;;;3.37;2.90;;;16.90;55.10;17.30;103056.00;;;;5050392;28;20178;-40
2022/01/12 10:40:51;;;;;;;5.87;3.43;;;16.90;55.10;17.40;103048.00;;;;5048423;28;20252;-39
2022/01/12 10:43:38;;;;;;;4.37;3.10;;;17.00;55.00;17.40;103051.00;;;;5049330;28;20166;-39
2022/01/12 10:46:06;;;;;;;5.93;3.43;;;17.00;54.90;17.40;103054.00;;;;5049869;28;20225;-39
2022/01/12 10:48:40;;;;;;;8.03;3.70;;;17.00;54.70;17.50;103060.00;;;;5050031;28;20622;-39
2022/01/12 10:51:05;;;;;;;6.07;3.20;;;17.00;54.80;17.50;103067.00;;;;5048786;28;20178;-39
2022/01/12 10:53:35;;;;;;;10.00;3.77;;;17.10;55.10;17.50;103075.00;;;;5049533;28;20154;-39
2022/01/12 10:56:05;;;;;;;8.40;3.53;;;17.10;55.20;17.50;103078.00;;;;5049266;28;20194;-39
2022/01/12 10:58:32;;;;;;;3.43;3.10;;;17.00;55.10;17.50;103078.00;;;;5049799;28;20194;-39
2022/01/12 11:00:58;;;;;;;5.87;3.20;;;17.00;55.20;17.50;103070.00;;;;5048831;28;20181;-39
2022/01/12 11:03:24;;;;;;;6.80;3.73;;;17.00;55.20;17.50;103071.00;;;;5049295;28;20170;-39
2022/01/12 11:05:50;;;;;;;5.20;3.60;;;17.00;55.30;17.50;103073.00;;;;5049243;28;20202;-39
2022/01/12 11:08:17;;;;;;;5.03;3.60;;;17.00;55.00;17.50;103047.00;;;;5049558;28;20625;-39
2022/01/12 11:10:44;;;;;;;7.37;3.40;;;17.00;55.00;17.50;103069.00;;;;5047800;28;20646;-39
2022/01/12 11:13:10;;;;;;;5.87;3.53;;;16.90;55.00;17.50;103079.00;;;;5048212;28;20551;-39
2022/01/12 11:15:36;;;;;;;7.80;3.70;;;16.90;55.10;17.50;103089.00;;;;5032131;28;20194;-39
2022/01/12 11:18:01;;;;;;;8.70;4.00;;;16.80;55.20;17.50;103089.00;;;;5048006;28;20537;-38
2022/01/12 11:20:28;;;;;;;7.57;3.97;;;16.80;55.40;17.50;103089.00;;;;5048715;28;20193;-38
2022/01/12 11:23:05;;;;;;;7.80;3.57;;;16.80;55.40;17.40;103084.00;;;;5048832;28;20170;-40
2022/01/12 11:25:34;;;;;;;7.70;3.73;;;16.80;55.40;17.40;103086.00;;;;5047766;28;20560;-40
2022/01/12 11:28:36;;;;;;;7.97;3.77;;;16.70;55.40;17.40;103095.00;;;;5049518;28;20183;-39
2022/01/12 11:31:02;;;;;;;8.53;3.60;;;16.70;55.60;17.30;103089.00;;;;5040457;28;20786;-40
2022/01/12 11:33:31;;;;;;;13.20;3.80;;;16.60;55.70;17.30;103078.00;;;;5048567;28;20797;-39
2022/01/12 11:36:04;;;;;;;10.57;3.50;;;16.60;56.00;17.30;103078.00;;;;5048605;28;20966;-39
2022/01/12 11:38:33;;;;;;;11.17;3.80;;;16.60;56.10;17.30;103074.00;;;;5031948;28;20169;-39
2022/01/12 11:41:21;;;;;;;13.03;3.90;;;16.60;56.00;17.30;103094.00;;;;5048160;28;20655;-38
2022/01/12 11:43:51;;;;;;;11.17;3.57;;;16.50;56.00;17.20;103091.00;;;;5048779;28;20166;-40
2022/01/12 11:46:22;;;;;;;5.70;3.57;;;16.40;56.20;17.20;103086.00;;;;5049993;28;20202;-39
2022/01/12 11:48:56;;;;;;;12.03;4.00;;;16.40;56.30;17.20;103084.00;;;;5049052;28;20241;-39
2022/01/12 11:51:43;;;;;;;8.53;4.17;;;16.40;56.40;17.10;103085.00;;;;5047353;28;20181;-39
2022/01/12 11:54:13;;;;;;;10.57;3.90;;;16.40;56.40;17.10;103089.00;;;;5048158;28;20158;-39
2022/01/12 11:57:13;;;;;;;9.27;3.53;;;16.30;56.30;17.10;103092.00;;;;5027948;28;20215;-39
2022/01/12 11:59:57;;;;;;;7.37;3.80;;;16.30;56.30;17.10;103089.00;;;;5030121;28;20179;-39
2022/01/12 12:02:35;;;;;;;9.13;3.70;;;16.30;56.40;17.00;103088.00;;;;5029155;28;20159;-39
2022/01/12 12:05:07;;;;;;;9.10;3.83;;;16.30;56.50;17.00;103085.00;;;;5029385;28;20616;-39
2022/01/12 12:07:50;;;;;;;13.83;3.60;;;16.20;56.50;17.00;103091.00;;;;5028538;28;20163;-38
2022/01/12 12:10:21;;;;;;;6.37;3.87;;;16.20;56.60;17.00;103096.00;;;;5026288;28;20167;-38
2022/01/12 12:12:47;;;;;;;6.60;3.23;;;16.10;56.60;17.00;103100.00;;;;5027698;28;20170;-38
2022/01/12 12:15:13;;;;;;;6.63;4.00;;;16.10;56.60;16.70;103093.00;;;;5028068;28;20195;-38
2022/01/12 12:17:41;;;;;;;6.63;4.17;;;16.10;56.60;16.90;103092.00;;;;5028592;28;20225;-39
2022/01/12 12:20:17;;;;;;;8.23;3.87;;;16.10;56.70;16.90;103100.00;;;;5029212;28;20195;-39
2022/01/12 12:22:44;;;;;;;8.37;3.77;;;16.00;56.60;16.90;103090.00;;;;5031464;28;20159;-39
2022/01/12 12:25:11;;;;;;;7.57;3.90;;;15.90;56.60;16.90;103086.00;;;;5032374;28;20301;-38
2022/01/12 12:27:40;;;;;;;9.73;4.13;;;15.90;56.80;16.80;103090.00;;;;5018672;28;20171;-39
2022/01/12 12:30:08;;;;;;;5.90;3.73;;;15.90;57.00;16.80;103075.00;;;;5008558;28;20349;-39
2022/01/12 12:32:52;;;;;;;8.30;3.93;;;15.90;57.20;16.80;103072.00;;;;5011473;28;20172;-38
2022/01/12 12:35:23;;;;;;;7.60;3.83;;;16.00;57.10;16.80;103062.00;;;;5010574;28;20552;-38
2022/01/12 12:37:56;;;;;;;12.20;3.90;;;16.20;56.90;16.90;103061.00;;;;5017354;28;20191;-39
2022/01/12 12:40:33;;;;;;;7.77;3.97;;;16.40;56.60;17.00;103064.00;;;;5027081;28;20185;-37
2022/01/12 12:43:20;;;;;;;6.87;3.70;;;16.70;56.30;17.20;103059.00;;;;5028517;28;20155;-40
2022/01/12 12:46:05;;;;;;;8.87;4.10;;;17.00;55.80;17.40;103054.00;;;;5028584;28;20206;-38
2022/01/12 12:48:33;;;;;;;9.27;4.30;;;17.30;55.30;17.50;103061.00;;;;5028094;28;20645;-38
2022/01/12 12:51:08;;;;;;;5.40;3.73;;;17.40;55.10;17.70;103071.00;;;;5028110;28;20533;-39
2022/01/12 12:53:47;;;;;;;7.33;4.03;;;17.50;55.20;17.80;103073.00;;;;5027921;28;20166;-40
2022/01/12 12:56:17;;;;;;;6.43;3.87;;;17.60;55.20;17.90;103072.00;;;;5028298;28;20244;-39
2022/01/12 12:58:50;;;;;;;6.87;4.03;;;17.70;55.30;18.00;103080.00;;;;5027451;28;20190;-40
2022/01/12 13:01:16;;;;;;;7.80;4.00;;;17.70;54.90;18.00;103068.00;;;;5027750;28;20735;-40
2022/01/12 13:03:57;;;;;;;5.70;4.20;;;17.90;55.00;18.10;103087.00;;;;5027720;28;20198;-38
2022/01/12 13:06:31;;;;;;;6.47;4.27;;;17.80;54.90;18.20;103079.00;;;;5027840;28;20194;-39
2022/01/12 13:09:05;;;;;;;5.83;3.80;;;17.90;54.80;18.20;103089.00;;;;5030503;28;20164;-39
2022/01/12 13:11:44;;;;;;;5.17;4.20;;;17.90;54.70;18.30;103089.00;;;;5036540;28;20224;-38
2022/01/12 13:14:11;;;;;;;6.53;3.90;;;18.00;55.40;18.30;103085.00;;;;5051197;28;20189;-38
2022/01/12 13:16:55;;;;;;;5.13;3.93;;;17.90;54.80;18.10;103083.00;;;;5051369;28;20194;-38
2022/01/12 13:22:37;;;;;;;6.13;4.00;;;17.90;54.90;18.40;103074.00;;;;5051758;28;20217;-38
2022/01/12 13:25:07;;;;;;;7.13;3.90;;;18.00;55.00;18.40;103075.00;;;;5051497;28;20688;-39
2022/01/12 13:27:37;;;;;;;6.07;3.87;;;17.90;55.00;18.40;103063.00;;;;5051995;28;20228;-38
2022/01/12 13:30:06;;;;;;;6.80;4.33;;;17.90;55.00;18.40;103071.00;;;;5051213;28;20178;-39
2022/01/12 13:32:32;;;;;;;5.20;4.23;;;17.90;55.00;18.40;103071.00;;;;5051712;28;20231;-39
2022/01/12 13:35:01;;;;;;;4.83;4.03;;;17.90;55.00;18.40;103077.00;;;;5049986;28;20594;-39
2022/01/12 13:37:27;;;;;;;5.20;4.00;;;17.90;55.20;18.40;103077.00;;;;5011768;28;20669;-39
2022/01/12 13:40:13;;;;;;;5.50;4.20;;;17.90;55.10;18.50;103081.00;;;;5011809;28;20713;-39
2022/01/12 13:42:54;;;;;;;7.23;4.13;;;17.90;55.00;18.40;103084.00;;;;5010437;28;20175;-39
2022/01/12 13:45:49;;;;;;;4.87;4.10;;;17.90;55.10;18.50;103080.00;;;;5011911;28;20265;-39
2022/01/12 13:48:20;;;;;;;6.73;4.50;;;17.90;55.10;18.40;103081.00;;;;5010184;28;20216;-37
2022/01/12 13:50:53;;;;;;;7.73;4.70;;;17.90;55.10;18.40;103071.00;;;;5035825;28;20193;-40
2022/01/12 13:53:39;;;;;;;12.67;4.67;;;17.90;55.10;18.50;103067.00;;;;5051330;28;20155;-39
2022/01/12 13:56:06;;;;;;;5.87;4.73;;;17.90;55.10;18.50;103067.00;;;;5049996;28;20777;-39
2022/01/12 13:58:35;;;;;;;6.87;4.67;;;17.90;55.20;18.50;102984.00;;;;5051031;28;20190;-42
2022/01/12 14:01:10;;;;;;;8.87;4.73;;;17.90;55.10;18.50;103059.00;;;;5050854;28;20161;-38
2022/01/12 14:03:52;;;;;;;9.27;4.47;;;17.90;55.10;18.50;103065.00;;;;5049568;28;20173;-38
2022/01/12 14:06:21;;;;;;;8.60;4.40;;;18.00;55.20;18.60;103066.00;;;;5050681;28;20629;-38
2022/01/12 14:08:55;;;;;;;6.97;4.77;;;18.00;55.20;18.60;103082.00;;;;5051034;28;20161;-38
2022/01/12 14:11:22;;;;;;;5.90;4.67;;;18.00;55.20;18.60;103055.00;;;;5049475;28;20615;-38
2022/01/12 14:13:47;;;;;;;6.23;4.73;;;18.00;55.30;18.60;103078.00;;;;5051118;28;20171;-38
2022/01/12 14:16:14;;;;;;;7.27;4.93;;;17.90;55.30;18.60;103075.00;;;;5051319;28;20268;-38
2022/01/12 14:18:40;;;;;;;6.43;4.40;;;17.90;55.40;18.60;103100.00;;;;5052458;28;20167;-40
2022/01/12 14:21:32;;;;;;;6.30;4.83;;;17.90;55.40;18.50;103094.00;;;;5050443;28;20179;-38
2022/01/12 14:23:58;;;;;;;5.87;4.80;;;17.90;55.50;18.50;103097.00;;;;5048829;28;20258;-38
2022/01/12 14:26:29;;;;;;;10.20;5.30;;;17.90;55.50;18.50;103105.00;;;;5050404;28;20280;-38
2022/01/12 14:28:56;;;;;;;7.03;5.03;;;17.90;55.70;18.50;103091.00;;;;5049635;28;20636;-38
2022/01/12 14:31:22;;;;;;;10.43;5.10;;;17.80;55.70;18.50;103097.00;;;;5049929;28;20179;-38
2022/01/12 14:33:48;;;;;;;15.53;5.67;;;17.80;55.80;18.50;103086.00;;;;5048676;28;20173;-43
2022/01/12 14:36:15;;;;;;;23.83;5.73;;;17.80;56.70;18.50;103090.00;;;;5049074;28;20195;-49
2022/01/12 14:38:41;;;;;;;13.47;5.00;;;17.70;57.60;18.50;103086.00;;;;5032791;28;20225;-50
2022/01/12 14:41:07;;;;;;;8.77;4.83;;;17.70;56.50;18.50;103086.00;;;;5029640;28;20190;-49
2022/01/12 14:43:32;;;;;;;8.53;5.23;;;17.60;56.40;18.40;103088.00;;;;5035281;28;20734;-50
2022/01/12 14:45:58;;;;;;;10.07;5.30;;;17.60;56.50;18.40;103095.00;;;;5040426;28;20616;-51
2022/01/12 14:48:24;;;;;;;8.77;5.30;;;17.60;56.30;18.40;103098.00;;;;5048370;28;20175;-50
2022/01/12 14:50:51;;;;;;;7.97;5.57;;;17.70;56.20;18.50;103094.00;;;;5050058;28;20175;-50
2022/01/12 14:53:19;;;;;;;7.77;5.20;;;17.90;55.90;18.50;103100.00;;;;5032329;28;20170;-51
2022/01/12 14:55:45;;;;;;;10.87;5.27;;;18.10;55.20;18.70;103097.00;;;;5038083;28;20207;-50
2022/01/12 14:58:11;;;;;;;8.87;5.40;;;18.50;54.90;18.80;103099.00;;;;5030103;28;20190;-49
2022/01/12 15:00:36;;;;;;;9.10;5.27;;;18.70;54.30;19.00;103087.00;;;;5028869;28;20167;-50
2022/01/12 15:03:06;;;;;;;5.97;4.70;;;18.80;54.10;19.10;103075.00;;;;5029834;28;20683;-49
2022/01/12 15:05:32;;;;;;;7.10;5.10;;;18.90;53.90;19.20;103066.00;;;;5032704;28;20264;-50